sensor_id;sensor_type;location;lat;lon;timestamp;P1;durP1;ratioP1;P2;durP2;ratioP2
6422;SDS011;3244;42.708;23.288;2023-05-16T00:01:55;14.88;;;13.43;;
6422;SDS011;3244;42.708;23.288;2023-05-16T00:04:22;14.25;;;12.85;;
6422;SDS011;3244;42.708;23.288;2023-05-16T00:06:49;15.07;;;12.48;;
6422;SDS011;3244;42.708;23.288;2023-05-16T00:09:17;15.98;;;13.00;;
6422;SDS011;3244;42.708;23.288;2023-05-16T00:11:44;17.92;;;14.27;;
6422;SDS011;3244;42.708;23.288;2023-05-16T00:14:12;14.75;;;13.27;;
6422;SDS011;3244;42.708;23.288;2023-05-16T00:16:39;15.55;;;14.18;;
6422;SDS011;3244;42.708;23.288;2023-05-16T00:19:05;16.95;;;13.40;;
6422;SDS011;3244;42.708;23.288;2023-05-16T00:21:32;16.60;;;13.32;;
6422;SDS011;3244;42.708;23.288;2023-05-16T00:23:59;15.77;;;13.80;;
6422;SDS011;3244;42.708;23.288;2023-05-16T00:26:27;15.02;;;13.40;;
6422;SDS011;3244;42.708;23.288;2023-05-16T00:28:54;15.05;;;13.68;;
6422;SDS011;3244;42.708;23.288;2023-05-16T00:31:20;17.98;;;13.02;;
6422;SDS011;3244;42.708;23.288;2023-05-16T00:33:47;18.50;;;14.40;;
6422;SDS011;3244;42.708;23.288;2023-05-16T00:36:14;14.77;;;13.35;;
6422;SDS011;3244;42.708;23.288;2023-05-16T00:38:40;17.52;;;13.90;;
6422;SDS011;3244;42.708;23.288;2023-05-16T00:41:07;16.98;;;14.75;;
6422;SDS011;3244;42.708;23.288;2023-05-16T00:43:35;20.17;;;14.43;;
6422;SDS011;3244;42.708;23.288;2023-05-16T00:46:03;17.95;;;14.98;;
6422;SDS011;3244;42.708;23.288;2023-05-16T00:48:30;16.73;;;15.13;;
6422;SDS011;3244;42.708;23.288;2023-05-16T00:50:57;19.23;;;14.88;;
6422;SDS011;3244;42.708;23.288;2023-05-16T00:53:24;21.95;;;15.60;;
6422;SDS011;3244;42.708;23.288;2023-05-16T00:55:52;16.67;;;14.98;;
6422;SDS011;3244;42.708;23.288;2023-05-16T00:58:20;17.25;;;15.45;;
6422;SDS011;3244;42.708;23.288;2023-05-16T01:00:49;17.40;;;14.35;;
6422;SDS011;3244;42.708;23.288;2023-05-16T01:03:16;19.35;;;15.77;;
6422;SDS011;3244;42.708;23.288;2023-05-16T01:05:43;16.52;;;14.57;;
6422;SDS011;3244;42.708;23.288;2023-05-16T01:08:11;22.33;;;15.75;;
6422;SDS011;3244;42.708;23.288;2023-05-16T01:10:38;20.48;;;15.13;;
6422;SDS011;3244;42.708;23.288;2023-05-16T01:13:11;17.02;;;13.82;;
6422;SDS011;3244;42.708;23.288;2023-05-16T01:15:49;20.52;;;13.43;;
6422;SDS011;3244;42.708;23.288;2023-05-16T01:18:28;16.58;;;14.93;;
6422;SDS011;3244;42.708;23.288;2023-05-16T01:21:03;22.55;;;14.60;;
6422;SDS011;3244;42.708;23.288;2023-05-16T01:23:39;14.93;;;13.52;;
6422;SDS011;3244;42.708;23.288;2023-05-16T01:26:18;14.75;;;13.25;;
6422;SDS011;3244;42.708;23.288;2023-05-16T01:28:47;15.02;;;13.55;;
6422;SDS011;3244;42.708;23.288;2023-05-16T01:31:15;15.23;;;13.73;;
6422;SDS011;3244;42.708;23.288;2023-05-16T01:33:42;18.52;;;13.95;;
6422;SDS011;3244;42.708;23.288;2023-05-16T01:36:10;15.13;;;13.68;;
6422;SDS011;3244;42.708;23.288;2023-05-16T01:38:50;18.77;;;14.73;;
6422;SDS011;3244;42.708;23.288;2023-05-16T01:41:28;15.30;;;13.73;;
6422;SDS011;3244;42.708;23.288;2023-05-16T01:44:06;16.42;;;14.13;;
6422;SDS011;3244;42.708;23.288;2023-05-16T01:46:41;15.20;;;12.85;;
6422;SDS011;3244;42.708;23.288;2023-05-16T01:49:13;14.35;;;12.90;;
6422;SDS011;3244;42.708;23.288;2023-05-16T01:51:42;14.25;;;12.63;;
6422;SDS011;3244;42.708;23.288;2023-05-16T01:54:14;15.15;;;12.07;;
6422;SDS011;3244;42.708;23.288;2023-05-16T01:56:46;13.20;;;11.95;;
6422;SDS011;3244;42.708;23.288;2023-05-16T01:59:18;13.63;;;12.43;;
6422;SDS011;3244;42.708;23.288;2023-05-16T02:01:46;17.52;;;12.57;;
6422;SDS011;3244;42.708;23.288;2023-05-16T02:04:12;16.27;;;12.23;;
6422;SDS011;3244;42.708;23.288;2023-05-16T02:06:40;19.95;;;13.10;;
6422;SDS011;3244;42.708;23.288;2023-05-16T02:09:07;13.13;;;12.05;;
6422;SDS011;3244;42.708;23.288;2023-05-16T02:11:33;13.07;;;11.85;;
6422;SDS011;3244;42.708;23.288;2023-05-16T02:14:01;13.52;;;12.02;;
6422;SDS011;3244;42.708;23.288;2023-05-16T02:16:28;14.63;;;11.05;;
6422;SDS011;3244;42.708;23.288;2023-05-16T02:18:55;12.50;;;10.77;;
6422;SDS011;3244;42.708;23.288;2023-05-16T02:21:22;13.23;;;10.98;;
6422;SDS011;3244;42.708;23.288;2023-05-16T02:23:49;12.15;;;10.98;;
6422;SDS011;3244;42.708;23.288;2023-05-16T02:26:15;11.73;;;10.70;;
6422;SDS011;3244;42.708;23.288;2023-05-16T02:28:42;14.05;;;11.27;;
6422;SDS011;3244;42.708;23.288;2023-05-16T02:31:10;12.35;;;11.10;;
6422;SDS011;3244;42.708;23.288;2023-05-16T02:33:37;14.85;;;10.52;;
6422;SDS011;3244;42.708;23.288;2023-05-16T02:36:04;12.07;;;10.82;;
6422;SDS011;3244;42.708;23.288;2023-05-16T02:38:30;16.88;;;10.75;;
6422;SDS011;3244;42.708;23.288;2023-05-16T02:40:57;12.35;;;11.20;;
6422;SDS011;3244;42.708;23.288;2023-05-16T02:43:24;17.58;;;11.98;;
6422;SDS011;3244;42.708;23.288;2023-05-16T02:45:50;13.73;;;10.88;;
6422;SDS011;3244;42.708;23.288;2023-05-16T02:48:18;12.52;;;11.23;;
6422;SDS011;3244;42.708;23.288;2023-05-16T02:50:45;11.93;;;10.55;;
6422;SDS011;3244;42.708;23.288;2023-05-16T02:53:12;12.13;;;11.02;;
6422;SDS011;3244;42.708;23.288;2023-05-16T02:55:38;15.85;;;11.00;;
6422;SDS011;3244;42.708;23.288;2023-05-16T02:58:05;14.05;;;11.55;;
6422;SDS011;3244;42.708;23.288;2023-05-16T03:00:32;13.18;;;11.40;;
6422;SDS011;3244;42.708;23.288;2023-05-16T03:02:59;13.55;;;11.57;;
6422;SDS011;3244;42.708;23.288;2023-05-16T03:05:27;10.32;;;9.20;;
6422;SDS011;3244;42.708;23.288;2023-05-16T03:07:54;12.93;;;11.07;;
6422;SDS011;3244;42.708;23.288;2023-05-16T03:10:20;10.98;;;9.85;;
6422;SDS011;3244;42.708;23.288;2023-05-16T03:12:47;11.65;;;10.35;;
6422;SDS011;3244;42.708;23.288;2023-05-16T03:15:14;11.82;;;10.65;;
6422;SDS011;3244;42.708;23.288;2023-05-16T03:17:41;11.77;;;10.77;;
6422;SDS011;3244;42.708;23.288;2023-05-16T03:20:08;12.45;;;10.15;;
6422;SDS011;3244;42.708;23.288;2023-05-16T03:22:37;13.45;;;11.80;;
6422;SDS011;3244;42.708;23.288;2023-05-16T03:25:05;14.68;;;11.63;;
6422;SDS011;3244;42.708;23.288;2023-05-16T03:27:32;13.45;;;12.13;;
6422;SDS011;3244;42.708;23.288;2023-05-16T03:29:59;13.27;;;11.63;;
6422;SDS011;3244;42.708;23.288;2023-05-16T03:32:25;18.08;;;12.52;;
6422;SDS011;3244;42.708;23.288;2023-05-16T03:34:52;13.15;;;11.63;;
6422;SDS011;3244;42.708;23.288;2023-05-16T03:37:19;14.57;;;11.32;;
6422;SDS011;3244;42.708;23.288;2023-05-16T03:39:47;14.50;;;12.48;;
6422;SDS011;3244;42.708;23.288;2023-05-16T03:42:13;17.17;;;13.05;;
6422;SDS011;3244;42.708;23.288;2023-05-16T03:44:41;15.15;;;12.88;;
6422;SDS011;3244;42.708;23.288;2023-05-16T03:47:08;18.35;;;13.35;;
6422;SDS011;3244;42.708;23.288;2023-05-16T03:49:34;16.85;;;13.60;;
6422;SDS011;3244;42.708;23.288;2023-05-16T03:52:02;27.52;;;17.65;;
6422;SDS011;3244;42.708;23.288;2023-05-16T03:54:28;49.53;;;30.90;;
6422;SDS011;3244;42.708;23.288;2023-05-16T03:56:57;26.40;;;20.42;;
6422;SDS011;3244;42.708;23.288;2023-05-16T03:59:23;16.27;;;13.10;;
6422;SDS011;3244;42.708;23.288;2023-05-16T04:01:50;15.07;;;13.45;;
6422;SDS011;3244;42.708;23.288;2023-05-16T04:04:17;19.10;;;13.18;;
6422;SDS011;3244;42.708;23.288;2023-05-16T04:06:43;13.63;;;11.98;;
6422;SDS011;3244;42.708;23.288;2023-05-16T04:09:10;13.75;;;12.05;;
6422;SDS011;3244;42.708;23.288;2023-05-16T04:11:37;29.83;;;13.93;;
6422;SDS011;3244;42.708;23.288;2023-05-16T04:14:05;16.00;;;12.30;;
6422;SDS011;3244;42.708;23.288;2023-05-16T04:16:32;17.58;;;13.35;;
6422;SDS011;3244;42.708;23.288;2023-05-16T04:18:58;15.07;;;12.73;;
6422;SDS011;3244;42.708;23.288;2023-05-16T04:21:25;31.08;;;18.25;;
6422;SDS011;3244;42.708;23.288;2023-05-16T04:23:52;21.48;;;17.33;;
6422;SDS011;3244;42.708;23.288;2023-05-16T04:26:18;30.55;;;22.00;;
6422;SDS011;3244;42.708;23.288;2023-05-16T04:28:46;24.27;;;15.85;;
6422;SDS011;3244;42.708;23.288;2023-05-16T04:31:14;26.52;;;17.52;;
6422;SDS011;3244;42.708;23.288;2023-05-16T04:33:41;35.25;;;21.48;;
6422;SDS011;3244;42.708;23.288;2023-05-16T04:36:08;37.85;;;19.60;;
6422;SDS011;3244;42.708;23.288;2023-05-16T04:38:35;34.85;;;18.00;;
6422;SDS011;3244;42.708;23.288;2023-05-16T04:41:01;25.88;;;15.90;;
6422;SDS011;3244;42.708;23.288;2023-05-16T04:43:28;25.40;;;15.50;;
6422;SDS011;3244;42.708;23.288;2023-05-16T04:45:56;22.48;;;15.32;;
6422;SDS011;3244;42.708;23.288;2023-05-16T04:48:25;24.45;;;15.27;;
6422;SDS011;3244;42.708;23.288;2023-05-16T04:50:51;19.83;;;15.18;;
6422;SDS011;3244;42.708;23.288;2023-05-16T04:53:18;21.02;;;16.42;;
6422;SDS011;3244;42.708;23.288;2023-05-16T04:55:45;19.75;;;14.57;;
6422;SDS011;3244;42.708;23.288;2023-05-16T04:58:11;23.58;;;14.38;;
6422;SDS011;3244;42.708;23.288;2023-05-16T05:00:38;19.77;;;15.27;;
6422;SDS011;3244;42.708;23.288;2023-05-16T05:03:05;21.52;;;16.15;;
6422;SDS011;3244;42.708;23.288;2023-05-16T05:05:33;21.33;;;17.63;;
6422;SDS011;3244;42.708;23.288;2023-05-16T05:07:59;22.52;;;16.17;;
6422;SDS011;3244;42.708;23.288;2023-05-16T05:10:26;19.58;;;12.45;;
6422;SDS011;3244;42.708;23.288;2023-05-16T05:12:55;14.73;;;13.20;;
6422;SDS011;3244;42.708;23.288;2023-05-16T05:15:22;14.68;;;13.15;;
6422;SDS011;3244;42.708;23.288;2023-05-16T05:17:48;15.68;;;12.57;;
6422;SDS011;3244;42.708;23.288;2023-05-16T05:20:15;17.85;;;13.15;;
6422;SDS011;3244;42.708;23.288;2023-05-16T05:22:43;18.27;;;13.63;;
6422;SDS011;3244;42.708;23.288;2023-05-16T05:25:10;16.77;;;12.43;;
6422;SDS011;3244;42.708;23.288;2023-05-16T05:27:37;15.93;;;12.98;;
6422;SDS011;3244;42.708;23.288;2023-05-16T05:30:04;13.02;;;11.82;;
6422;SDS011;3244;42.708;23.288;2023-05-16T05:32:32;13.10;;;11.23;;
6422;SDS011;3244;42.708;23.288;2023-05-16T05:34:58;16.13;;;12.38;;
6422;SDS011;3244;42.708;23.288;2023-05-16T05:37:25;17.65;;;13.50;;
6422;SDS011;3244;42.708;23.288;2023-05-16T05:39:53;16.88;;;12.57;;
6422;SDS011;3244;42.708;23.288;2023-05-16T05:42:20;23.05;;;13.65;;
6422;SDS011;3244;42.708;23.288;2023-05-16T05:44:47;19.15;;;13.55;;
6422;SDS011;3244;42.708;23.288;2023-05-16T05:47:14;14.10;;;12.75;;
6422;SDS011;3244;42.708;23.288;2023-05-16T05:49:40;19.75;;;12.43;;
6422;SDS011;3244;42.708;23.288;2023-05-16T05:52:07;17.27;;;12.00;;
6422;SDS011;3244;42.708;23.288;2023-05-16T05:54:34;16.15;;;12.15;;
6422;SDS011;3244;42.708;23.288;2023-05-16T05:57:02;17.17;;;11.43;;
6422;SDS011;3244;42.708;23.288;2023-05-16T05:59:29;13.80;;;10.98;;
6422;SDS011;3244;42.708;23.288;2023-05-16T06:01:56;14.13;;;12.02;;
6422;SDS011;3244;42.708;23.288;2023-05-16T06:04:23;13.65;;;12.27;;
6422;SDS011;3244;42.708;23.288;2023-05-16T06:06:49;13.82;;;12.38;;
6422;SDS011;3244;42.708;23.288;2023-05-16T06:09:16;13.05;;;11.75;;
6422;SDS011;3244;42.708;23.288;2023-05-16T06:11:43;13.27;;;11.45;;
6422;SDS011;3244;42.708;23.288;2023-05-16T06:14:11;14.93;;;11.60;;
6422;SDS011;3244;42.708;23.288;2023-05-16T06:16:39;12.93;;;11.10;;
6422;SDS011;3244;42.708;23.288;2023-05-16T06:19:06;18.30;;;10.88;;
6422;SDS011;3244;42.708;23.288;2023-05-16T06:21:33;14.13;;;11.55;;
6422;SDS011;3244;42.708;23.288;2023-05-16T06:24:00;11.82;;;10.63;;
6422;SDS011;3244;42.708;23.288;2023-05-16T06:26:27;19.83;;;11.05;;
6422;SDS011;3244;42.708;23.288;2023-05-16T06:28:53;13.38;;;11.18;;
6422;SDS011;3244;42.708;23.288;2023-05-16T06:31:21;17.73;;;11.40;;
6422;SDS011;3244;42.708;23.288;2023-05-16T06:33:48;13.57;;;11.00;;
6422;SDS011;3244;42.708;23.288;2023-05-16T06:36:15;12.00;;;10.02;;
6422;SDS011;3244;42.708;23.288;2023-05-16T06:38:42;20.10;;;12.07;;
6422;SDS011;3244;42.708;23.288;2023-05-16T06:41:09;14.02;;;10.52;;
6422;SDS011;3244;42.708;23.288;2023-05-16T06:43:36;12.63;;;11.13;;
6422;SDS011;3244;42.708;23.288;2023-05-16T06:46:02;15.88;;;9.85;;
6422;SDS011;3244;42.708;23.288;2023-05-16T06:48:30;12.52;;;10.48;;
6422;SDS011;3244;42.708;23.288;2023-05-16T06:50:57;18.33;;;10.35;;
6422;SDS011;3244;42.708;23.288;2023-05-16T06:53:23;16.63;;;10.50;;
6422;SDS011;3244;42.708;23.288;2023-05-16T06:55:50;15.48;;;9.40;;
6422;SDS011;3244;42.708;23.288;2023-05-16T06:58:17;13.90;;;10.63;;
6422;SDS011;3244;42.708;23.288;2023-05-16T07:00:44;14.55;;;9.98;;
6422;SDS011;3244;42.708;23.288;2023-05-16T07:03:11;11.93;;;10.85;;
6422;SDS011;3244;42.708;23.288;2023-05-16T07:05:40;12.95;;;10.93;;
6422;SDS011;3244;42.708;23.288;2023-05-16T07:08:07;17.52;;;10.63;;
6422;SDS011;3244;42.708;23.288;2023-05-16T07:10:36;11.90;;;10.57;;
6422;SDS011;3244;42.708;23.288;2023-05-16T07:13:03;12.88;;;9.18;;
6422;SDS011;3244;42.708;23.288;2023-05-16T07:15:30;12.43;;;9.55;;
6422;SDS011;3244;42.708;23.288;2023-05-16T07:17:57;11.60;;;9.90;;
6422;SDS011;3244;42.708;23.288;2023-05-16T07:20:23;10.07;;;9.15;;
6422;SDS011;3244;42.708;23.288;2023-05-16T07:22:51;13.90;;;9.05;;
6422;SDS011;3244;42.708;23.288;2023-05-16T07:25:18;18.25;;;9.45;;
6422;SDS011;3244;42.708;23.288;2023-05-16T07:27:45;13.48;;;9.23;;
6422;SDS011;3244;42.708;23.288;2023-05-16T07:30:12;18.42;;;9.63;;
6422;SDS011;3244;42.708;23.288;2023-05-16T07:32:39;11.40;;;8.95;;
6422;SDS011;3244;42.708;23.288;2023-05-16T07:35:07;7.55;;;6.82;;
6422;SDS011;3244;42.708;23.288;2023-05-16T07:37:35;11.63;;;8.02;;
6422;SDS011;3244;42.708;23.288;2023-05-16T07:40:03;9.20;;;8.30;;
6422;SDS011;3244;42.708;23.288;2023-05-16T07:42:31;8.93;;;8.02;;
6422;SDS011;3244;42.708;23.288;2023-05-16T07:44:57;10.40;;;9.40;;
6422;SDS011;3244;42.708;23.288;2023-05-16T07:47:24;10.55;;;8.27;;
6422;SDS011;3244;42.708;23.288;2023-05-16T07:49:51;8.52;;;7.75;;
6422;SDS011;3244;42.708;23.288;2023-05-16T07:52:17;15.48;;;8.50;;
6422;SDS011;3244;42.708;23.288;2023-05-16T07:54:45;9.38;;;8.48;;
6422;SDS011;3244;42.708;23.288;2023-05-16T07:57:13;13.35;;;8.90;;
6422;SDS011;3244;42.708;23.288;2023-05-16T07:59:40;11.73;;;7.45;;
6422;SDS011;3244;42.708;23.288;2023-05-16T08:02:07;9.05;;;8.10;;
6422;SDS011;3244;42.708;23.288;2023-05-16T08:04:34;13.18;;;9.13;;
6422;SDS011;3244;42.708;23.288;2023-05-16T08:07:01;11.80;;;8.52;;
6422;SDS011;3244;42.708;23.288;2023-05-16T08:09:28;12.68;;;9.70;;
6422;SDS011;3244;42.708;23.288;2023-05-16T08:11:55;12.35;;;7.70;;
6422;SDS011;3244;42.708;23.288;2023-05-16T08:14:23;10.05;;;8.18;;
6422;SDS011;3244;42.708;23.288;2023-05-16T08:16:50;8.82;;;7.75;;
6422;SDS011;3244;42.708;23.288;2023-05-16T08:19:16;12.18;;;7.95;;
6422;SDS011;3244;42.708;23.288;2023-05-16T08:21:43;10.70;;;8.05;;
6422;SDS011;3244;42.708;23.288;2023-05-16T08:24:10;12.77;;;8.52;;
6422;SDS011;3244;42.708;23.288;2023-05-16T08:26:37;11.27;;;9.32;;
6422;SDS011;3244;42.708;23.288;2023-05-16T08:29:03;13.70;;;9.07;;
6422;SDS011;3244;42.708;23.288;2023-05-16T08:31:31;17.50;;;8.75;;
6422;SDS011;3244;42.708;23.288;2023-05-16T08:33:58;15.02;;;9.40;;
6422;SDS011;3244;42.708;23.288;2023-05-16T08:36:30;15.13;;;11.80;;
6422;SDS011;3244;42.708;23.288;2023-05-16T08:38:58;11.35;;;8.40;;
6422;SDS011;3244;42.708;23.288;2023-05-16T08:41:25;10.30;;;9.20;;
6422;SDS011;3244;42.708;23.288;2023-05-16T08:43:52;10.30;;;9.18;;
6422;SDS011;3244;42.708;23.288;2023-05-16T08:46:20;17.50;;;9.18;;
6422;SDS011;3244;42.708;23.288;2023-05-16T08:48:50;11.90;;;9.70;;
6422;SDS011;3244;42.708;23.288;2023-05-16T08:51:18;11.43;;;9.02;;
6422;SDS011;3244;42.708;23.288;2023-05-16T08:53:48;9.85;;;8.75;;
6422;SDS011;3244;42.708;23.288;2023-05-16T08:56:19;17.20;;;9.25;;
6422;SDS011;3244;42.708;23.288;2023-05-16T08:58:47;10.45;;;9.35;;
6422;SDS011;3244;42.708;23.288;2023-05-16T09:01:14;15.65;;;9.20;;
6422;SDS011;3244;42.708;23.288;2023-05-16T09:03:41;10.52;;;7.68;;
6422;SDS011;3244;42.708;23.288;2023-05-16T09:06:10;13.35;;;8.57;;
6422;SDS011;3244;42.708;23.288;2023-05-16T09:08:37;12.02;;;7.60;;
6422;SDS011;3244;42.708;23.288;2023-05-16T09:11:03;10.38;;;7.72;;
6422;SDS011;3244;42.708;23.288;2023-05-16T09:13:30;7.75;;;6.97;;
6422;SDS011;3244;42.708;23.288;2023-05-16T09:16:07;10.20;;;6.97;;
6422;SDS011;3244;42.708;23.288;2023-05-16T09:18:34;9.95;;;6.60;;
6422;SDS011;3244;42.708;23.288;2023-05-16T09:21:01;9.32;;;8.02;;
6422;SDS011;3244;42.708;23.288;2023-05-16T09:23:30;18.92;;;8.23;;
6422;SDS011;3244;42.708;23.288;2023-05-16T09:25:57;7.90;;;7.28;;
6422;SDS011;3244;42.708;23.288;2023-05-16T09:28:24;13.82;;;7.55;;
6422;SDS011;3244;42.708;23.288;2023-05-16T09:30:51;10.00;;;7.63;;
6422;SDS011;3244;42.708;23.288;2023-05-16T09:33:21;10.90;;;8.52;;
6422;SDS011;3244;42.708;23.288;2023-05-16T09:35:53;7.78;;;7.05;;
6422;SDS011;3244;42.708;23.288;2023-05-16T09:38:20;8.00;;;7.30;;
6422;SDS011;3244;42.708;23.288;2023-05-16T09:40:49;9.43;;;7.53;;
6422;SDS011;3244;42.708;23.288;2023-05-16T09:43:16;11.05;;;7.82;;
6422;SDS011;3244;42.708;23.288;2023-05-16T09:45:44;10.07;;;7.63;;
6422;SDS011;3244;42.708;23.288;2023-05-16T09:48:13;10.52;;;6.85;;
6422;SDS011;3244;42.708;23.288;2023-05-16T09:50:44;10.52;;;7.88;;
6422;SDS011;3244;42.708;23.288;2023-05-16T09:53:13;7.20;;;6.47;;
6422;SDS011;3244;42.708;23.288;2023-05-16T09:55:40;9.85;;;7.60;;
6422;SDS011;3244;42.708;23.288;2023-05-16T09:58:08;10.95;;;6.78;;
6422;SDS011;3244;42.708;23.288;2023-05-16T10:00:35;9.45;;;6.72;;
6422;SDS011;3244;42.708;23.288;2023-05-16T10:03:02;8.73;;;6.32;;
6422;SDS011;3244;42.708;23.288;2023-05-16T10:05:29;10.23;;;6.78;;
6422;SDS011;3244;42.708;23.288;2023-05-16T10:07:57;7.68;;;6.95;;
6422;SDS011;3244;42.708;23.288;2023-05-16T10:10:24;11.25;;;6.75;;
6422;SDS011;3244;42.708;23.288;2023-05-16T10:12:52;11.27;;;7.75;;
6422;SDS011;3244;42.708;23.288;2023-05-16T10:15:24;8.35;;;6.95;;
6422;SDS011;3244;42.708;23.288;2023-05-16T10:17:51;14.85;;;6.82;;
6422;SDS011;3244;42.708;23.288;2023-05-16T10:20:21;11.98;;;7.40;;
6422;SDS011;3244;42.708;23.288;2023-05-16T10:22:50;8.38;;;6.85;;
6422;SDS011;3244;42.708;23.288;2023-05-16T10:25:20;10.32;;;7.35;;
6422;SDS011;3244;42.708;23.288;2023-05-16T10:27:51;8.07;;;6.68;;
6422;SDS011;3244;42.708;23.288;2023-05-16T10:30:19;10.13;;;6.95;;
6422;SDS011;3244;42.708;23.288;2023-05-16T10:32:48;13.30;;;7.78;;
6422;SDS011;3244;42.708;23.288;2023-05-16T10:35:16;13.15;;;7.78;;
6422;SDS011;3244;42.708;23.288;2023-05-16T10:37:44;12.65;;;7.95;;
6422;SDS011;3244;42.708;23.288;2023-05-16T10:40:12;12.95;;;8.10;;
6422;SDS011;3244;42.708;23.288;2023-05-16T10:42:42;11.63;;;8.00;;
6422;SDS011;3244;42.708;23.288;2023-05-16T10:45:19;12.25;;;7.05;;
6422;SDS011;3244;42.708;23.288;2023-05-16T10:47:54;13.48;;;7.57;;
6422;SDS011;3244;42.708;23.288;2023-05-16T10:50:34;18.42;;;9.05;;
6422;SDS011;3244;42.708;23.288;2023-05-16T10:53:17;10.68;;;8.13;;
6422;SDS011;3244;42.708;23.288;2023-05-16T10:55:49;12.60;;;7.88;;
6422;SDS011;3244;42.708;23.288;2023-05-16T10:58:38;10.88;;;8.30;;
6422;SDS011;3244;42.708;23.288;2023-05-16T11:01:22;9.68;;;7.82;;
6422;SDS011;3244;42.708;23.288;2023-05-16T11:04:00;15.45;;;7.40;;
6422;SDS011;3244;42.708;23.288;2023-05-16T11:06:29;13.57;;;9.98;;
6422;SDS011;3244;42.708;23.288;2023-05-16T11:09:04;9.23;;;7.97;;
6422;SDS011;3244;42.708;23.288;2023-05-16T11:11:37;15.65;;;9.85;;
6422;SDS011;3244;42.708;23.288;2023-05-16T11:14:05;16.38;;;7.65;;
6422;SDS011;3244;42.708;23.288;2023-05-16T11:16:32;9.65;;;7.57;;
6422;SDS011;3244;42.708;23.288;2023-05-16T11:19:04;14.95;;;8.07;;
6422;SDS011;3244;42.708;23.288;2023-05-16T11:24:31;10.30;;;8.05;;
6422;SDS011;3244;42.708;23.288;2023-05-16T11:27:00;15.50;;;8.60;;
6422;SDS011;3244;42.708;23.288;2023-05-16T11:29:28;11.15;;;8.38;;
6422;SDS011;3244;42.708;23.288;2023-05-16T11:31:57;14.68;;;8.30;;
6422;SDS011;3244;42.708;23.288;2023-05-16T11:34:26;11.95;;;9.10;;
6422;SDS011;3244;42.708;23.288;2023-05-16T11:36:53;14.80;;;8.68;;
6422;SDS011;3244;42.708;23.288;2023-05-16T11:39:20;13.20;;;8.35;;
6422;SDS011;3244;42.708;23.288;2023-05-16T11:41:48;15.45;;;10.13;;
6422;SDS011;3244;42.708;23.288;2023-05-16T11:44:15;9.50;;;8.73;;
6422;SDS011;3244;42.708;23.288;2023-05-16T11:46:42;13.23;;;9.52;;
6422;SDS011;3244;42.708;23.288;2023-05-16T11:49:08;10.43;;;7.95;;
6422;SDS011;3244;42.708;23.288;2023-05-16T11:51:38;19.48;;;10.00;;
6422;SDS011;3244;42.708;23.288;2023-05-16T11:54:05;14.45;;;8.13;;
6422;SDS011;3244;42.708;23.288;2023-05-16T11:56:33;10.07;;;8.57;;
6422;SDS011;3244;42.708;23.288;2023-05-16T11:59:01;19.38;;;8.88;;
6422;SDS011;3244;42.708;23.288;2023-05-16T12:01:30;15.80;;;9.35;;
6422;SDS011;3244;42.708;23.288;2023-05-16T12:03:59;12.05;;;9.15;;
6422;SDS011;3244;42.708;23.288;2023-05-16T12:06:26;12.48;;;8.38;;
6422;SDS011;3244;42.708;23.288;2023-05-16T12:08:56;10.65;;;8.35;;
6422;SDS011;3244;42.708;23.288;2023-05-16T12:11:23;15.07;;;8.05;;
6422;SDS011;3244;42.708;23.288;2023-05-16T12:13:50;11.85;;;7.20;;
6422;SDS011;3244;42.708;23.288;2023-05-16T12:16:17;11.63;;;7.75;;
6422;SDS011;3244;42.708;23.288;2023-05-16T12:18:44;14.32;;;9.35;;
6422;SDS011;3244;42.708;23.288;2023-05-16T12:21:11;12.88;;;9.45;;
6422;SDS011;3244;42.708;23.288;2023-05-16T12:23:38;15.50;;;10.38;;
6422;SDS011;3244;42.708;23.288;2023-05-16T12:26:08;13.65;;;9.38;;
6422;SDS011;3244;42.708;23.288;2023-05-16T12:28:35;16.08;;;9.20;;
6422;SDS011;3244;42.708;23.288;2023-05-16T12:31:03;17.13;;;10.70;;
6422;SDS011;3244;42.708;23.288;2023-05-16T12:33:43;19.98;;;9.50;;
6422;SDS011;3244;42.708;23.288;2023-05-16T12:36:11;13.40;;;7.47;;
6422;SDS011;3244;42.708;23.288;2023-05-16T12:38:40;11.98;;;8.27;;
6422;SDS011;3244;42.708;23.288;2023-05-16T12:41:06;21.88;;;9.07;;
6422;SDS011;3244;42.708;23.288;2023-05-16T12:43:35;12.02;;;7.32;;
6422;SDS011;3244;42.708;23.288;2023-05-16T12:46:01;13.70;;;8.73;;
6422;SDS011;3244;42.708;23.288;2023-05-16T12:48:35;13.80;;;8.00;;
6422;SDS011;3244;42.708;23.288;2023-05-16T12:51:10;14.80;;;8.45;;
6422;SDS011;3244;42.708;23.288;2023-05-16T12:53:41;10.00;;;8.10;;
6422;SDS011;3244;42.708;23.288;2023-05-16T12:56:10;12.05;;;8.48;;
6422;SDS011;3244;42.708;23.288;2023-05-16T12:58:38;14.13;;;6.75;;
6422;SDS011;3244;42.708;23.288;2023-05-16T13:01:05;11.85;;;8.70;;
6422;SDS011;3244;42.708;23.288;2023-05-16T13:03:32;16.98;;;7.88;;
6422;SDS011;3244;42.708;23.288;2023-05-16T13:05:59;15.75;;;7.80;;
6422;SDS011;3244;42.708;23.288;2023-05-16T13:08:28;14.82;;;9.07;;
6422;SDS011;3244;42.708;23.288;2023-05-16T13:10:54;18.40;;;8.50;;
6422;SDS011;3244;42.708;23.288;2023-05-16T13:13:23;12.15;;;8.70;;
6422;SDS011;3244;42.708;23.288;2023-05-16T13:15:50;16.00;;;8.02;;
6422;SDS011;3244;42.708;23.288;2023-05-16T13:18:16;15.73;;;8.98;;
6422;SDS011;3244;42.708;23.288;2023-05-16T13:20:43;11.52;;;8.57;;
6422;SDS011;3244;42.708;23.288;2023-05-16T13:23:10;17.73;;;8.82;;
6422;SDS011;3244;42.708;23.288;2023-05-16T13:25:36;21.92;;;9.68;;
6422;SDS011;3244;42.708;23.288;2023-05-16T13:28:03;9.82;;;8.82;;
6422;SDS011;3244;42.708;23.288;2023-05-16T13:30:31;12.10;;;7.72;;
6422;SDS011;3244;42.708;23.288;2023-05-16T13:32:58;13.43;;;8.70;;
6422;SDS011;3244;42.708;23.288;2023-05-16T13:35:25;11.20;;;7.82;;
6422;SDS011;3244;42.708;23.288;2023-05-16T13:37:52;11.98;;;8.35;;
6422;SDS011;3244;42.708;23.288;2023-05-16T13:40:18;14.48;;;8.82;;
6422;SDS011;3244;42.708;23.288;2023-05-16T13:42:45;14.43;;;7.85;;
6422;SDS011;3244;42.708;23.288;2023-05-16T13:45:12;14.23;;;8.05;;
6422;SDS011;3244;42.708;23.288;2023-05-16T13:47:40;14.40;;;9.13;;
6422;SDS011;3244;42.708;23.288;2023-05-16T13:50:07;20.80;;;9.50;;
6422;SDS011;3244;42.708;23.288;2023-05-16T13:52:34;10.20;;;8.20;;
6422;SDS011;3244;42.708;23.288;2023-05-16T13:55:01;20.60;;;8.60;;
6422;SDS011;3244;42.708;23.288;2023-05-16T13:57:28;15.55;;;8.35;;
6422;SDS011;3244;42.708;23.288;2023-05-16T13:59:55;10.68;;;9.20;;
6422;SDS011;3244;42.708;23.288;2023-05-16T14:02:22;16.40;;;8.50;;
6422;SDS011;3244;42.708;23.288;2023-05-16T14:04:51;16.55;;;8.15;;
6422;SDS011;3244;42.708;23.288;2023-05-16T14:07:18;17.08;;;9.55;;
6422;SDS011;3244;42.708;23.288;2023-05-16T14:09:45;14.73;;;9.25;;
6422;SDS011;3244;42.708;23.288;2023-05-16T14:12:11;16.15;;;9.07;;
6422;SDS011;3244;42.708;23.288;2023-05-16T14:14:38;16.02;;;9.25;;
6422;SDS011;3244;42.708;23.288;2023-05-16T14:17:05;18.20;;;8.20;;
6422;SDS011;3244;42.708;23.288;2023-05-16T14:19:32;22.23;;;10.50;;
6422;SDS011;3244;42.708;23.288;2023-05-16T14:22:00;19.38;;;11.98;;
6422;SDS011;3244;42.708;23.288;2023-05-16T14:24:27;26.38;;;15.45;;
6422;SDS011;3244;42.708;23.288;2023-05-16T14:26:54;22.35;;;13.05;;
6422;SDS011;3244;42.708;23.288;2023-05-16T14:29:20;14.00;;;11.98;;
6422;SDS011;3244;42.708;23.288;2023-05-16T14:31:48;19.23;;;11.73;;
6422;SDS011;3244;42.708;23.288;2023-05-16T14:34:15;13.38;;;11.07;;
6422;SDS011;3244;42.708;23.288;2023-05-16T14:36:41;18.70;;;11.15;;
6422;SDS011;3244;42.708;23.288;2023-05-16T14:39:09;15.65;;;11.82;;
6422;SDS011;3244;42.708;23.288;2023-05-16T14:41:36;16.15;;;12.25;;
6422;SDS011;3244;42.708;23.288;2023-05-16T14:44:03;23.90;;;13.15;;
6422;SDS011;3244;42.708;23.288;2023-05-16T14:46:29;21.20;;;12.77;;
6422;SDS011;3244;42.708;23.288;2023-05-16T14:48:56;19.75;;;13.82;;